createdAt,value
2022-12-22T00:00:16.355Z,42.75
2022-12-22T00:03:01.128Z,42.33
2022-12-22T00:05:46.255Z,44.00
2022-12-22T00:08:30.887Z,44.30
2022-12-22T00:14:03.726Z,41.72
2022-12-22T00:16:54.177Z,44.15
2022-12-22T00:19:39.913Z,44.50
2022-12-22T00:22:38.612Z,45.72
2022-12-22T00:25:24.300Z,46.75
2022-12-22T00:28:09.504Z,44.60
2022-12-22T00:30:55.270Z,45.38
2022-12-22T00:33:40.444Z,43.25
2022-12-22T00:36:29.988Z,42.30
2022-12-22T00:39:15.299Z,45.28
2022-12-22T00:42:00.561Z,44.13
2022-12-22T00:44:45.425Z,47.15
2022-12-22T00:47:45.333Z,44.97
2022-12-22T00:50:30.999Z,47.38
2022-12-22T00:53:17.175Z,48.50
2022-12-22T00:56:02.538Z,48.90
2022-12-22T00:58:47.799Z,47.15
2022-12-22T01:01:32.679Z,48.83
2022-12-22T01:04:17.829Z,45.08
2022-12-22T01:07:02.566Z,47.85
2022-12-22T01:09:47.978Z,46.88
2022-12-22T01:12:43.993Z,45.25
2022-12-22T01:15:32.691Z,44.08
2022-12-22T01:18:17.463Z,50.72
2022-12-22T01:21:02.210Z,48.22
2022-12-22T01:23:46.939Z,51.38
2022-12-22T01:26:32.110Z,48.55
2022-12-22T01:29:16.956Z,45.50
2022-12-22T01:32:02.689Z,47.10
2022-12-22T01:37:32.209Z,42.30
2022-12-22T01:40:17.340Z,42.50
2022-12-22T01:43:02.077Z,45.83
2022-12-22T01:45:51.774Z,42.45
2022-12-22T01:48:39.594Z,43.30
2022-12-22T01:51:29.951Z,43.15
2022-12-22T01:54:16.260Z,44.28
2022-12-22T01:57:02.914Z,47.70
2022-12-22T01:59:47.724Z,46.75
2022-12-22T02:02:34.096Z,51.67
2022-12-22T02:05:22.816Z,45.53
2022-12-22T02:08:15.124Z,49.28
2022-12-22T02:11:08.860Z,45.72
2022-12-22T02:14:06.690Z,47.30
2022-12-22T02:17:03.525Z,48.42
2022-12-22T02:20:18.287Z,44.97
2022-12-22T02:23:19.633Z,46.77
2022-12-22T02:26:13.342Z,47.47
2022-12-22T02:28:58.636Z,50.03
2022-12-22T02:31:44.456Z,48.00
2022-12-22T02:34:33.670Z,47.22
2022-12-22T02:37:41.788Z,48.67
2022-12-22T02:40:41.180Z,46.13
2022-12-22T02:43:52.007Z,50.60
2022-12-22T02:46:43.126Z,45.42
2022-12-22T02:49:35.648Z,49.05
2022-12-22T02:52:38.313Z,47.95
2022-12-22T02:55:24.595Z,48.45
2022-12-22T02:58:10.290Z,47.28
2022-12-22T03:00:56.628Z,46.17
2022-12-22T03:03:42.107Z,44.08
2022-12-22T03:06:27.172Z,46.83
2022-12-22T03:09:11.832Z,41.78
2022-12-22T03:14:41.193Z,39.78
2022-12-22T03:20:10.857Z,39.67
2022-12-22T03:25:40.336Z,41.83
2022-12-22T03:28:08.630Z,44.05
2022-12-22T03:30:35.537Z,47.05
2022-12-22T03:33:01.991Z,50.33
2022-12-22T03:35:28.412Z,47.13
2022-12-22T03:37:54.850Z,45.42
2022-12-22T03:40:21.176Z,46.05
2022-12-22T03:43:06.085Z,47.00
2022-12-22T03:45:58.264Z,45.45
2022-12-22T03:48:24.670Z,43.00
2022-12-22T03:50:51.104Z,44.00
2022-12-22T03:53:17.445Z,44.55
2022-12-22T03:55:43.777Z,44.03
2022-12-22T03:58:10.115Z,42.20
2022-12-22T04:00:36.445Z,41.05
2022-12-22T04:03:03.011Z,44.13
2022-12-22T04:05:29.468Z,45.92
2022-12-22T04:07:55.882Z,44.40
2022-12-22T04:10:40.919Z,49.40
2022-12-22T04:13:07.275Z,41.28
2022-12-22T04:15:33.601Z,43.05
2022-12-22T04:18:00.348Z,41.40
2022-12-22T04:20:27.791Z,44.00
2022-12-22T04:22:55.614Z,41.78
2022-12-22T04:25:23.121Z,42.50
2022-12-22T04:27:49.509Z,42.25
2022-12-22T04:30:16.270Z,47.85
2022-12-22T04:32:42.663Z,46.97
2022-12-22T04:35:10.151Z,43.88
2022-12-22T04:37:36.722Z,47.15
2022-12-22T04:40:04.510Z,42.67
2022-12-22T04:42:30.890Z,43.83
2022-12-22T04:44:57.232Z,44.90
2022-12-22T04:47:23.877Z,47.63
2022-12-22T04:49:50.213Z,43.40
2022-12-22T04:52:16.597Z,47.63
2022-12-22T04:54:42.935Z,50.45
2022-12-22T04:57:09.267Z,45.40
2022-12-22T04:59:35.694Z,45.67
2022-12-22T05:02:02.154Z,47.70
2022-12-22T05:04:28.733Z,47.33
2022-12-22T05:06:55.073Z,45.58
2022-12-22T05:09:21.427Z,45.78
2022-12-22T05:11:47.804Z,50.45
2022-12-22T05:14:14.353Z,43.05
2022-12-22T05:16:40.827Z,47.28
2022-12-22T05:19:07.421Z,47.78
2022-12-22T05:21:34.149Z,46.88
2022-12-22T05:24:00.618Z,48.53
2022-12-22T05:26:27.156Z,45.63
2022-12-22T05:28:53.633Z,48.25
2022-12-22T05:31:22.830Z,44.10
2022-12-22T05:33:50.770Z,49.17
2022-12-22T05:36:17.405Z,48.80
2022-12-22T05:38:47.014Z,51.25
2022-12-22T05:41:14.259Z,48.05
2022-12-22T05:43:40.850Z,47.90
2022-12-22T05:46:11.615Z,50.13
2022-12-22T05:48:39.889Z,48.70
2022-12-22T05:51:08.809Z,50.33
2022-12-22T05:53:35.810Z,52.33
2022-12-22T05:56:02.572Z,50.03
2022-12-22T05:58:29.007Z,49.33
2022-12-22T06:01:00.105Z,48.75
2022-12-22T06:03:27.814Z,44.63
2022-12-22T06:05:54.725Z,46.65
2022-12-22T06:08:21.834Z,48.35
2022-12-22T06:10:48.367Z,44.90
2022-12-22T06:13:14.796Z,46.72
2022-12-22T06:15:41.225Z,43.15
2022-12-22T06:18:07.668Z,45.85
2022-12-22T06:20:34.018Z,47.63
2022-12-22T06:23:00.580Z,46.63
2022-12-22T06:25:26.913Z,43.42
2022-12-22T06:27:53.233Z,44.78
2022-12-22T06:30:19.694Z,43.53
2022-12-22T06:32:46.072Z,45.83
2022-12-22T06:35:12.550Z,47.72
2022-12-22T06:37:38.924Z,47.70
2022-12-22T06:40:08.406Z,49.05
2022-12-22T06:42:53.183Z,47.05
2022-12-22T06:45:19.534Z,47.47
2022-12-22T06:47:45.921Z,46.20
2022-12-22T06:50:12.344Z,45.15
2022-12-22T06:52:39.609Z,48.20
2022-12-22T06:55:06.420Z,47.95
2022-12-22T06:57:32.720Z,48.80
2022-12-22T06:59:59.056Z,47.53
2022-12-22T07:02:25.929Z,52.72
2022-12-22T07:04:52.485Z,51.80
2022-12-22T07:07:18.934Z,54.03
2022-12-22T07:09:45.296Z,60.17
2022-12-22T07:12:13.603Z,62.03
2022-12-22T07:14:40.064Z,72.55
2022-12-22T07:17:06.459Z,76.05
2022-12-22T07:19:32.838Z,79.63
2022-12-22T07:21:59.164Z,89.13
2022-12-22T07:24:26.664Z,90.47
2022-12-22T07:26:53.176Z,92.25
2022-12-22T07:29:19.594Z,90.38
2022-12-22T07:31:46.462Z,94.22
2022-12-22T07:34:13.277Z,94.28
2022-12-22T07:36:39.765Z,96.10
2022-12-22T07:39:06.198Z,94.50
2022-12-22T07:41:51.250Z,102.05
2022-12-22T07:44:17.732Z,97.25
2022-12-22T07:46:44.239Z,98.47
2022-12-22T07:49:30.619Z,92.65
2022-12-22T07:51:57.935Z,88.25
2022-12-22T07:54:25.087Z,93.07
2022-12-22T07:56:51.901Z,98.68
2022-12-22T07:59:18.450Z,96.15
2022-12-22T08:01:45.721Z,96.43
2022-12-22T08:04:14.030Z,95.78
2022-12-22T08:06:41.016Z,98.32
2022-12-22T08:09:08.809Z,96.05
2022-12-22T08:11:35.490Z,99.10
2022-12-22T08:14:02.333Z,99.00
2022-12-22T08:16:29.056Z,90.53
2022-12-22T08:18:55.989Z,91.47
2022-12-22T08:21:22.854Z,98.55
2022-12-22T08:23:49.283Z,96.40
2022-12-22T08:26:18.308Z,98.45
2022-12-22T08:28:54.128Z,102.97
2022-12-22T08:31:22.631Z,95.30
2022-12-22T08:33:49.156Z,95.70
2022-12-22T08:36:16.258Z,97.68
2022-12-22T08:38:42.937Z,92.40
2022-12-22T08:41:12.230Z,91.43
2022-12-22T08:43:38.591Z,95.95
2022-12-22T08:46:05.306Z,92.03
2022-12-22T08:48:31.673Z,92.35
2022-12-22T08:50:58.128Z,91.05
2022-12-22T08:54:02.556Z,91.15
2022-12-22T08:56:10.774Z,98.65
2022-12-22T08:58:37.077Z,92.40
2022-12-22T09:01:03.518Z,95.55
2022-12-22T09:03:29.925Z,96.85
2022-12-22T09:06:03.306Z,94.80
2022-12-22T09:08:29.636Z,104.80
2022-12-22T09:10:55.968Z,98.20
2022-12-22T09:13:22.444Z,96.18
2022-12-22T09:15:48.797Z,96.63
2022-12-22T09:18:15.098Z,93.60
2022-12-22T09:20:41.427Z,91.55
2022-12-22T09:23:07.804Z,93.30
2022-12-22T09:25:34.608Z,91.72
2022-12-22T09:28:00.948Z,100.00
2022-12-22T09:30:27.278Z,91.35
2022-12-22T09:32:54.726Z,95.65
2022-12-22T09:35:21.032Z,97.82
2022-12-22T09:37:48.987Z,93.03
2022-12-22T09:40:15.497Z,99.65
2022-12-22T09:42:41.951Z,92.45
2022-12-22T09:45:19.943Z,97.18
2022-12-22T09:47:53.602Z,90.68
2022-12-22T09:50:24.015Z,90.72
2022-12-22T09:53:00.439Z,96.68
2022-12-22T09:55:40.739Z,88.53
2022-12-22T09:58:18.338Z,92.65
2022-12-22T10:00:55.702Z,87.15
2022-12-22T10:03:33.296Z,88.85
2022-12-22T10:06:10.118Z,88.15
2022-12-22T10:08:40.615Z,89.97
2022-12-22T10:11:12.344Z,82.75
2022-12-22T10:13:38.693Z,90.68
2022-12-22T10:16:23.476Z,91.50
2022-12-22T10:18:59.196Z,88.50
2022-12-22T10:21:26.441Z,87.45
2022-12-22T10:23:53.172Z,88.45
2022-12-22T10:26:31.411Z,88.63
2022-12-22T10:29:15.389Z,84.45
2022-12-22T10:32:12.779Z,81.13
2022-12-22T10:34:59.509Z,84.97
2022-12-22T10:37:34.852Z,87.47
2022-12-22T10:40:19.502Z,88.82
2022-12-22T10:45:23.301Z,78.10
2022-12-22T10:47:52.929Z,82.88
2022-12-22T10:50:20.789Z,86.15
2022-12-22T10:52:57.383Z,79.78
2022-12-22T10:55:26.912Z,74.32
2022-12-22T10:58:14.500Z,79.30
2022-12-22T11:00:41.561Z,77.70
2022-12-22T11:03:11.917Z,81.60
2022-12-22T11:05:38.649Z,76.88
2022-12-22T11:08:19.227Z,74.13
2022-12-22T11:11:04.067Z,74.53
2022-12-22T11:13:48.914Z,66.68
2022-12-22T11:16:15.191Z,62.17
2022-12-22T11:18:51.912Z,60.15
2022-12-22T11:21:34.903Z,55.97
2022-12-22T11:24:15.130Z,56.67
2022-12-22T11:27:27.797Z,52.65
2022-12-22T11:30:20.351Z,51.95
2022-12-22T11:32:49.774Z,39.17
2022-12-22T11:35:34.960Z,42.10
2022-12-22T11:38:22.775Z,39.13
2022-12-22T11:40:59.558Z,34.85
2022-12-22T11:43:34.665Z,46.00
2022-12-22T11:46:13.145Z,47.65
2022-12-22T11:49:13.371Z,44.63
2022-12-22T11:51:58.056Z,43.25
2022-12-22T11:57:13.271Z,38.22
2022-12-22T12:00:01.083Z,36.00
2022-12-22T12:02:45.900Z,35.47
2022-12-22T12:05:28.915Z,35.85
2022-12-22T12:08:05.808Z,37.03
2022-12-22T12:10:42.399Z,35.83
2022-12-22T12:13:44.303Z,37.40
2022-12-22T12:16:25.926Z,36.25
2022-12-22T12:19:23.161Z,40.95
2022-12-22T12:21:56.369Z,37.92
2022-12-22T12:24:47.759Z,41.13
2022-12-22T12:27:45.869Z,36.35
2022-12-22T12:33:17.469Z,31.65
2022-12-22T12:36:11.774Z,38.63
2022-12-22T12:39:08.748Z,38.13
2022-12-22T12:42:00.324Z,36.75
2022-12-22T12:44:31.314Z,36.88
2022-12-22T12:47:43.342Z,39.33
2022-12-22T12:50:33.068Z,38.67
2022-12-22T12:53:03.932Z,37.10
2022-12-22T12:55:32.703Z,43.33
2022-12-22T12:58:04.175Z,39.40
2022-12-22T13:00:33.865Z,34.65
2022-12-22T13:03:02.884Z,38.33
2022-12-22T13:05:48.349Z,37.92
2022-12-22T13:08:17.833Z,36.65
2022-12-22T13:10:53.287Z,38.75
2022-12-22T13:13:22.617Z,42.78
2022-12-22T13:16:07.323Z,42.30
2022-12-22T13:18:33.732Z,43.50
2022-12-22T13:21:50.836Z,43.20
2022-12-22T13:24:22.810Z,46.53
2022-12-22T13:26:43.685Z,45.13
2022-12-22T13:29:19.649Z,44.45
2022-12-22T13:31:48.737Z,49.28
2022-12-22T13:35:20.072Z,46.75
2022-12-22T13:37:40.400Z,46.92
2022-12-22T13:40:09.873Z,41.90
2022-12-22T13:42:40.135Z,45.63
2022-12-22T13:45:17.205Z,34.10
2022-12-22T13:47:45.336Z,29.13
2022-12-22T13:50:28.131Z,25.48
2022-12-22T13:52:56.414Z,23.70
2022-12-22T13:55:29.571Z,19.67
2022-12-22T13:58:04.039Z,18.67
2022-12-22T14:00:30.588Z,17.40
2022-12-22T14:02:57.170Z,17.98
2022-12-22T14:05:30.842Z,16.50
2022-12-22T14:08:06.362Z,16.23
2022-12-22T14:10:38.470Z,17.63
2022-12-22T14:13:11.823Z,15.80
2022-12-22T14:15:38.214Z,15.93
2022-12-22T14:18:04.702Z,16.05
2022-12-22T14:20:36.326Z,18.00
2022-12-22T14:23:08.295Z,17.42
2022-12-22T14:25:39.437Z,17.48
2022-12-22T14:28:14.902Z,17.48
2022-12-22T14:30:45.041Z,17.40
2022-12-22T14:33:32.556Z,17.15
2022-12-22T14:36:21.636Z,17.48
2022-12-22T14:38:56.104Z,17.27
2022-12-22T14:41:42.876Z,18.50
2022-12-22T14:44:19.299Z,18.10
2022-12-22T14:47:00.632Z,17.70
2022-12-22T14:49:27.625Z,16.60
2022-12-22T14:52:03.180Z,18.75
2022-12-22T14:54:29.704Z,22.17
2022-12-22T14:57:15.315Z,23.25
2022-12-22T14:59:58.511Z,23.55
2022-12-22T15:02:39.636Z,21.95
2022-12-22T15:05:25.046Z,26.30
2022-12-22T15:08:05.480Z,24.27
2022-12-22T15:10:51.483Z,25.45
2022-12-22T15:13:24.522Z,25.83
2022-12-22T15:15:52.028Z,30.80
2022-12-22T15:18:24.172Z,38.67
2022-12-22T15:20:50.529Z,36.30
2022-12-22T15:23:17.440Z,37.08
2022-12-22T15:25:44.479Z,39.95
2022-12-22T15:28:10.937Z,39.47
2022-12-22T15:30:38.044Z,42.67
2022-12-22T15:33:06.330Z,43.03
2022-12-22T15:35:34.721Z,44.13
2022-12-22T15:38:01.536Z,42.95
2022-12-22T15:40:28.972Z,43.03
2022-12-22T15:42:55.296Z,40.25
2022-12-22T15:45:22.364Z,41.17
2022-12-22T15:47:52.327Z,40.92
2022-12-22T15:50:23.910Z,37.47
2022-12-22T15:52:53.709Z,34.50
2022-12-22T15:55:20.679Z,34.05
2022-12-22T15:57:51.146Z,35.45
2022-12-22T16:00:18.869Z,37.75
2022-12-22T16:02:45.511Z,40.75
2022-12-22T16:05:12.988Z,43.28
2022-12-22T16:07:40.758Z,38.10
2022-12-22T16:10:23.714Z,42.28
2022-12-22T16:12:55.363Z,40.65
2022-12-22T16:15:22.333Z,43.22
2022-12-22T16:17:51.571Z,44.72
2022-12-22T16:20:18.168Z,49.00
2022-12-22T16:22:44.993Z,49.08
2022-12-22T16:25:18.670Z,42.65
2022-12-22T16:27:47.767Z,42.38
2022-12-22T16:30:19.223Z,46.83
2022-12-22T16:32:45.975Z,47.38
2022-12-22T16:35:15.145Z,46.47
2022-12-22T16:37:42.086Z,50.13
2022-12-22T16:40:09.226Z,49.53
2022-12-22T16:45:24.165Z,49.67
2022-12-22T16:47:53.024Z,49.33
2022-12-22T16:50:27.483Z,48.90
2022-12-22T16:52:53.925Z,49.67
2022-12-22T16:55:21.946Z,48.42
2022-12-22T16:57:48.677Z,48.38
2022-12-22T17:00:18.512Z,53.42
2022-12-22T17:02:50.065Z,51.55
2022-12-22T17:05:44.923Z,51.20
2022-12-22T17:08:33.713Z,54.75
2022-12-22T17:11:09.823Z,52.75
2022-12-22T17:13:37.691Z,60.42
2022-12-22T17:16:05.050Z,59.88
2022-12-22T17:18:33.101Z,53.88
2022-12-22T17:21:00.602Z,54.25
2022-12-22T17:23:47.613Z,56.30
2022-12-22T17:26:17.380Z,53.35
2022-12-22T17:28:44.532Z,54.92
2022-12-22T17:31:15.596Z,58.47
2022-12-22T17:33:42.050Z,56.35
2022-12-22T17:36:18.669Z,57.78
2022-12-22T17:38:45.888Z,57.00
2022-12-22T17:41:15.392Z,58.95
2022-12-22T17:43:41.712Z,60.55
2022-12-22T17:46:15.204Z,52.03
2022-12-22T17:48:42.368Z,56.28
2022-12-22T17:51:29.315Z,51.00
2022-12-22T17:53:58.046Z,55.78
2022-12-22T17:56:26.734Z,54.83
2022-12-22T17:58:54.140Z,52.63
2022-12-22T18:01:29.741Z,50.45
2022-12-22T18:03:56.633Z,53.40
2022-12-22T18:06:27.397Z,57.72
2022-12-22T18:08:54.899Z,56.42
2022-12-22T18:11:22.781Z,54.92
2022-12-22T18:13:50.229Z,56.88
2022-12-22T18:16:18.903Z,62.95
2022-12-22T18:18:45.328Z,64.85
2022-12-22T18:21:17.469Z,66.18
2022-12-22T18:23:49.988Z,68.95
2022-12-22T18:26:21.689Z,68.87
2022-12-22T18:28:48.798Z,61.80
2022-12-22T18:31:15.235Z,65.18
2022-12-22T18:33:41.882Z,64.50
2022-12-22T18:36:16.588Z,73.40
2022-12-22T18:38:43.322Z,67.65
2022-12-22T18:41:19.427Z,67.78
2022-12-22T18:43:45.885Z,69.65
2022-12-22T18:46:12.838Z,69.68
2022-12-22T18:48:39.327Z,71.22
2022-12-22T18:51:19.697Z,68.72
2022-12-22T18:53:46.334Z,64.28
2022-12-22T18:56:13.516Z,68.40
2022-12-22T18:58:41.363Z,68.38
2022-12-22T19:01:17.097Z,74.78
2022-12-22T19:03:45.421Z,73.22
2022-12-22T19:06:11.853Z,78.90
2022-12-22T19:08:45.063Z,73.55
2022-12-22T19:11:12.594Z,75.70
2022-12-22T19:13:42.663Z,74.90
2022-12-22T19:16:13.434Z,72.90
2022-12-22T19:18:39.841Z,70.95
2022-12-22T19:21:06.356Z,72.38
2022-12-22T19:23:32.711Z,73.97
2022-12-22T19:26:08.385Z,74.38
2022-12-22T19:28:39.064Z,71.53
2022-12-22T19:31:07.363Z,75.90
2022-12-22T19:33:43.032Z,75.25
2022-12-22T19:36:19.633Z,73.57
2022-12-22T19:38:50.291Z,76.13
2022-12-22T19:41:38.687Z,77.97
2022-12-22T19:44:05.692Z,83.03
2022-12-22T19:46:34.071Z,81.05
2022-12-22T19:49:01.057Z,85.50
2022-12-22T19:51:27.437Z,83.28
2022-12-22T19:53:54.255Z,87.38
2022-12-22T19:56:29.812Z,85.40
2022-12-22T19:58:57.653Z,91.85
2022-12-22T20:01:24.083Z,98.10
2022-12-22T20:03:57.639Z,116.00
2022-12-22T20:06:24.063Z,90.13
2022-12-22T20:08:50.405Z,95.65
2022-12-22T20:11:19.142Z,145.27
2022-12-22T20:13:46.709Z,105.47
2022-12-22T20:16:15.174Z,163.05
2022-12-22T20:18:42.548Z,102.88
2022-12-22T20:21:25.550Z,124.43
2022-12-22T20:23:53.006Z,95.30
2022-12-22T20:26:22.317Z,129.40
2022-12-22T20:28:51.721Z,119.57
2022-12-22T20:31:20.886Z,117.05
2022-12-22T20:33:47.331Z,124.68
2022-12-22T20:36:23.596Z,129.48
2022-12-22T20:38:54.237Z,131.10
2022-12-22T20:41:21.105Z,118.28
2022-12-22T20:43:48.166Z,115.32
2022-12-22T20:46:27.920Z,117.18
2022-12-22T20:48:57.327Z,117.70
2022-12-22T20:51:26.130Z,116.30
2022-12-22T20:53:53.288Z,109.05
2022-12-22T20:56:30.259Z,121.50
2022-12-22T20:58:58.196Z,133.88
2022-12-22T21:01:24.804Z,137.23
2022-12-22T21:03:51.338Z,143.10
2022-12-22T21:06:30.813Z,129.57
2022-12-22T21:08:59.005Z,113.95
2022-12-22T21:11:26.459Z,150.90
2022-12-22T21:13:53.878Z,155.40
2022-12-22T21:16:25.996Z,160.18
2022-12-22T21:18:53.983Z,145.77
2022-12-22T21:21:20.813Z,130.75
2022-12-22T21:23:47.349Z,177.52
2022-12-22T21:26:22.935Z,150.38
2022-12-22T21:28:49.939Z,147.30
2022-12-22T21:31:16.386Z,156.57
2022-12-22T21:33:43.007Z,135.45
2022-12-22T21:36:32.388Z,129.43
2022-12-22T21:39:03.395Z,103.05
2022-12-22T21:41:48.452Z,109.70
2022-12-22T21:44:14.821Z,101.43
2022-12-22T21:46:46.427Z,113.50
2022-12-22T21:49:21.895Z,107.03
2022-12-22T21:51:49.751Z,98.38
2022-12-22T21:54:17.388Z,112.57
2022-12-22T21:56:43.772Z,107.80
2022-12-22T21:59:10.196Z,127.65
2022-12-22T22:01:38.058Z,122.60
2022-12-22T22:04:04.665Z,123.25
2022-12-22T22:06:31.165Z,112.43
2022-12-22T22:08:57.555Z,125.55
2022-12-22T22:11:25.484Z,119.60
2022-12-22T22:13:53.014Z,115.07
2022-12-22T22:16:19.605Z,115.35
2022-12-22T22:18:47.171Z,121.65
2022-12-22T22:21:15.561Z,128.90
2022-12-22T22:23:43.012Z,127.57
2022-12-22T22:26:10.443Z,132.73
2022-12-22T22:28:36.885Z,126.45
2022-12-22T22:31:09.574Z,133.32
2022-12-22T22:33:36.673Z,133.05
2022-12-22T22:36:08.229Z,125.60
2022-12-22T22:38:34.830Z,116.28
2022-12-22T22:41:01.282Z,113.75
2022-12-22T22:43:27.610Z,120.43
2022-12-22T22:45:53.963Z,116.90
2022-12-22T22:48:22.135Z,115.75
2022-12-22T22:50:59.233Z,112.00
2022-12-22T22:53:25.545Z,99.32
2022-12-22T22:55:51.872Z,104.65
2022-12-22T22:58:18.211Z,105.80
2022-12-22T23:00:44.589Z,119.40
2022-12-22T23:03:11.123Z,111.07
2022-12-22T23:05:37.614Z,104.55
2022-12-22T23:08:04.208Z,111.75
2022-12-22T23:10:32.688Z,107.65
2022-12-22T23:13:02.532Z,102.28
2022-12-22T23:15:28.894Z,103.95
2022-12-22T23:17:55.343Z,97.47
2022-12-22T23:20:21.754Z,104.90
2022-12-22T23:22:48.121Z,101.40
2022-12-22T23:25:14.531Z,94.35
2022-12-22T23:27:40.950Z,105.07
2022-12-22T23:30:08.012Z,106.45
2022-12-22T23:32:34.364Z,98.18
2022-12-22T23:35:00.706Z,114.43
2022-12-22T23:37:27.055Z,87.60
2022-12-22T23:39:53.414Z,113.55
2022-12-22T23:42:19.728Z,97.57
2022-12-22T23:44:46.098Z,93.50
2022-12-22T23:47:12.926Z,132.52
2022-12-22T23:49:39.433Z,109.25
2022-12-22T23:52:05.790Z,86.13
2022-12-22T23:54:32.148Z,117.10
2022-12-22T23:56:58.471Z,105.82
2022-12-22T23:59:24.947Z,111.13
